sensor_id;sensor_type;location;lat;lon;timestamp;P1;durP1;ratioP1;P2;durP2;ratioP2
32038;SDS011;18549;42.286;22.688;2023-06-05T00:01:00;11.05;;;6.75;;
32038;SDS011;18549;42.286;22.688;2023-06-05T00:03:28;10.82;;;7.78;;
32038;SDS011;18549;42.286;22.688;2023-06-05T00:05:55;12.37;;;7.05;;
32038;SDS011;18549;42.286;22.688;2023-06-05T00:08:24;15.52;;;8.98;;
32038;SDS011;18549;42.286;22.688;2023-06-05T00:10:51;15.30;;;8.02;;
32038;SDS011;18549;42.286;22.688;2023-06-05T00:13:18;22.25;;;8.85;;
32038;SDS011;18549;42.286;22.688;2023-06-05T00:15:46;10.98;;;9.32;;
32038;SDS011;18549;42.286;22.688;2023-06-05T00:18:14;13.73;;;9.07;;
32038;SDS011;18549;42.286;22.688;2023-06-05T00:20:44;16.55;;;9.05;;
32038;SDS011;18549;42.286;22.688;2023-06-05T00:23:11;15.73;;;9.60;;
32038;SDS011;18549;42.286;22.688;2023-06-05T00:25:41;13.20;;;8.25;;
32038;SDS011;18549;42.286;22.688;2023-06-05T00:28:08;12.73;;;7.85;;
32038;SDS011;18549;42.286;22.688;2023-06-05T00:30:35;10.07;;;7.55;;
32038;SDS011;18549;42.286;22.688;2023-06-05T00:33:04;17.20;;;8.68;;
32038;SDS011;18549;42.286;22.688;2023-06-05T00:35:32;12.98;;;7.68;;
32038;SDS011;18549;42.286;22.688;2023-06-05T00:37:59;18.35;;;8.10;;
32038;SDS011;18549;42.286;22.688;2023-06-05T00:40:27;16.52;;;7.68;;
32038;SDS011;18549;42.286;22.688;2023-06-05T00:42:56;12.10;;;7.72;;
32038;SDS011;18549;42.286;22.688;2023-06-05T00:45:23;11.82;;;6.78;;
32038;SDS011;18549;42.286;22.688;2023-06-05T00:47:51;9.40;;;5.68;;
32038;SDS011;18549;42.286;22.688;2023-06-05T00:50:18;10.45;;;6.70;;
32038;SDS011;18549;42.286;22.688;2023-06-05T00:52:46;15.38;;;7.03;;
32038;SDS011;18549;42.286;22.688;2023-06-05T00:55:15;18.33;;;6.75;;
32038;SDS011;18549;42.286;22.688;2023-06-05T00:57:43;11.60;;;8.00;;
32038;SDS011;18549;42.286;22.688;2023-06-05T01:00:13;16.85;;;7.10;;
32038;SDS011;18549;42.286;22.688;2023-06-05T01:02:41;15.85;;;7.78;;
32038;SDS011;18549;42.286;22.688;2023-06-05T01:05:08;13.18;;;7.50;;
32038;SDS011;18549;42.286;22.688;2023-06-05T01:07:36;11.60;;;7.37;;
32038;SDS011;18549;42.286;22.688;2023-06-05T01:10:06;7.00;;;5.37;;
32038;SDS011;18549;42.286;22.688;2023-06-05T01:12:38;7.00;;;5.68;;
32038;SDS011;18549;42.286;22.688;2023-06-05T01:15:10;7.32;;;6.00;;
32038;SDS011;18549;42.286;22.688;2023-06-05T01:17:42;8.00;;;5.15;;
32038;SDS011;18549;42.286;22.688;2023-06-05T01:20:12;11.88;;;5.10;;
32038;SDS011;18549;42.286;22.688;2023-06-05T01:22:40;15.88;;;6.53;;
32038;SDS011;18549;42.286;22.688;2023-06-05T01:25:09;10.45;;;6.75;;
32038;SDS011;18549;42.286;22.688;2023-06-05T01:27:38;7.20;;;5.68;;
32038;SDS011;18549;42.286;22.688;2023-06-05T01:30:15;9.50;;;6.90;;
32038;SDS011;18549;42.286;22.688;2023-06-05T01:32:56;6.75;;;5.95;;
32038;SDS011;18549;42.286;22.688;2023-06-05T01:35:27;7.72;;;6.47;;
32038;SDS011;18549;42.286;22.688;2023-06-05T01:37:58;10.13;;;6.53;;
32038;SDS011;18549;42.286;22.688;2023-06-05T01:40:29;10.75;;;7.03;;
32038;SDS011;18549;42.286;22.688;2023-06-05T01:42:57;9.98;;;6.78;;
32038;SDS011;18549;42.286;22.688;2023-06-05T01:45:26;20.50;;;9.50;;
32038;SDS011;18549;42.286;22.688;2023-06-05T01:47:55;11.60;;;8.60;;
32038;SDS011;18549;42.286;22.688;2023-06-05T01:50:24;16.12;;;8.43;;
32038;SDS011;18549;42.286;22.688;2023-06-05T01:52:52;14.93;;;9.43;;
32038;SDS011;18549;42.286;22.688;2023-06-05T01:55:21;11.18;;;8.43;;
32038;SDS011;18549;42.286;22.688;2023-06-05T01:57:53;9.85;;;8.70;;
32038;SDS011;18549;42.286;22.688;2023-06-05T02:00:21;21.98;;;9.90;;
32038;SDS011;18549;42.286;22.688;2023-06-05T02:02:49;13.10;;;9.52;;
32038;SDS011;18549;42.286;22.688;2023-06-05T02:05:17;13.80;;;8.20;;
32038;SDS011;18549;42.286;22.688;2023-06-05T02:07:45;10.75;;;8.75;;
32038;SDS011;18549;42.286;22.688;2023-06-05T02:10:14;20.85;;;9.00;;
32038;SDS011;18549;42.286;22.688;2023-06-05T02:12:44;11.40;;;9.23;;
32038;SDS011;18549;42.286;22.688;2023-06-05T02:15:13;12.60;;;7.85;;
32038;SDS011;18549;42.286;22.688;2023-06-05T02:17:40;9.45;;;8.23;;
32038;SDS011;18549;42.286;22.688;2023-06-05T02:20:10;10.85;;;9.15;;
32038;SDS011;18549;42.286;22.688;2023-06-05T02:22:38;13.68;;;8.70;;
32038;SDS011;18549;42.286;22.688;2023-06-05T02:25:07;12.03;;;9.07;;
32038;SDS011;18549;42.286;22.688;2023-06-05T02:27:36;14.48;;;8.48;;
32038;SDS011;18549;42.286;22.688;2023-06-05T02:30:03;21.65;;;8.13;;
32038;SDS011;18549;42.286;22.688;2023-06-05T02:32:33;10.35;;;8.32;;
32038;SDS011;18549;42.286;22.688;2023-06-05T02:35:01;28.87;;;9.68;;
32038;SDS011;18549;42.286;22.688;2023-06-05T02:37:30;13.62;;;9.00;;
32038;SDS011;18549;42.286;22.688;2023-06-05T02:40:02;15.38;;;8.70;;
32038;SDS011;18549;42.286;22.688;2023-06-05T02:42:30;12.10;;;8.77;;
32038;SDS011;18549;42.286;22.688;2023-06-05T02:44:58;11.82;;;7.85;;
32038;SDS011;18549;42.286;22.688;2023-06-05T02:47:25;12.05;;;9.13;;
32038;SDS011;18549;42.286;22.688;2023-06-05T02:49:54;12.90;;;9.45;;
32038;SDS011;18549;42.286;22.688;2023-06-05T02:52:22;11.30;;;8.50;;
32038;SDS011;18549;42.286;22.688;2023-06-05T02:54:49;14.95;;;9.43;;
32038;SDS011;18549;42.286;22.688;2023-06-05T02:57:17;12.95;;;9.50;;
32038;SDS011;18549;42.286;22.688;2023-06-05T02:59:44;13.70;;;8.95;;
32038;SDS011;18549;42.286;22.688;2023-06-05T03:02:12;11.77;;;8.95;;
32038;SDS011;18549;42.286;22.688;2023-06-05T03:04:39;11.80;;;8.65;;
32038;SDS011;18549;42.286;22.688;2023-06-05T03:07:09;11.70;;;9.18;;
32038;SDS011;18549;42.286;22.688;2023-06-05T03:09:38;13.95;;;10.10;;
32038;SDS011;18549;42.286;22.688;2023-06-05T03:12:06;19.52;;;9.07;;
32038;SDS011;18549;42.286;22.688;2023-06-05T03:14:34;12.63;;;9.13;;
32038;SDS011;18549;42.286;22.688;2023-06-05T03:17:01;13.45;;;10.43;;
32038;SDS011;18549;42.286;22.688;2023-06-05T03:19:29;18.05;;;10.38;;
32038;SDS011;18549;42.286;22.688;2023-06-05T03:21:56;11.20;;;8.73;;
32038;SDS011;18549;42.286;22.688;2023-06-05T03:24:25;12.30;;;9.30;;
32038;SDS011;18549;42.286;22.688;2023-06-05T03:26:53;14.95;;;9.27;;
32038;SDS011;18549;42.286;22.688;2023-06-05T03:29:20;14.57;;;10.05;;
32038;SDS011;18549;42.286;22.688;2023-06-05T03:31:48;14.57;;;9.45;;
32038;SDS011;18549;42.286;22.688;2023-06-05T03:34:15;15.27;;;10.02;;
32038;SDS011;18549;42.286;22.688;2023-06-05T03:36:42;19.58;;;10.98;;
32038;SDS011;18549;42.286;22.688;2023-06-05T03:39:10;20.52;;;10.93;;
32038;SDS011;18549;42.286;22.688;2023-06-05T03:41:38;15.10;;;10.55;;
32038;SDS011;18549;42.286;22.688;2023-06-05T03:44:06;19.77;;;10.05;;
32038;SDS011;18549;42.286;22.688;2023-06-05T03:46:34;23.08;;;10.57;;
32038;SDS011;18549;42.286;22.688;2023-06-05T03:49:02;14.32;;;9.82;;
32038;SDS011;18549;42.286;22.688;2023-06-05T03:51:34;14.82;;;8.88;;
32038;SDS011;18549;42.286;22.688;2023-06-05T03:54:01;13.52;;;8.80;;
32038;SDS011;18549;42.286;22.688;2023-06-05T03:56:30;12.40;;;9.50;;
32038;SDS011;18549;42.286;22.688;2023-06-05T03:59:01;16.27;;;9.20;;
32038;SDS011;18549;42.286;22.688;2023-06-05T04:01:34;9.98;;;8.65;;
32038;SDS011;18549;42.286;22.688;2023-06-05T04:04:02;17.83;;;9.10;;
32038;SDS011;18549;42.286;22.688;2023-06-05T04:06:30;13.75;;;9.70;;
32038;SDS011;18549;42.286;22.688;2023-06-05T04:08:59;23.38;;;10.07;;
32038;SDS011;18549;42.286;22.688;2023-06-05T04:11:27;12.80;;;9.48;;
32038;SDS011;18549;42.286;22.688;2023-06-05T04:13:57;14.87;;;9.13;;
32038;SDS011;18549;42.286;22.688;2023-06-05T04:16:25;13.50;;;9.00;;
32038;SDS011;18549;42.286;22.688;2023-06-05T04:18:54;10.80;;;8.63;;
32038;SDS011;18549;42.286;22.688;2023-06-05T04:21:21;8.90;;;7.32;;
32038;SDS011;18549;42.286;22.688;2023-06-05T04:23:48;12.10;;;7.40;;
32038;SDS011;18549;42.286;22.688;2023-06-05T04:26:16;10.52;;;7.25;;
32038;SDS011;18549;42.286;22.688;2023-06-05T04:28:44;14.55;;;7.72;;
32038;SDS011;18549;42.286;22.688;2023-06-05T04:31:16;10.10;;;7.80;;
32038;SDS011;18549;42.286;22.688;2023-06-05T04:33:44;14.32;;;7.45;;
32038;SDS011;18549;42.286;22.688;2023-06-05T04:36:12;16.13;;;7.73;;
32038;SDS011;18549;42.286;22.688;2023-06-05T04:38:43;16.10;;;6.93;;
32038;SDS011;18549;42.286;22.688;2023-06-05T04:41:10;11.47;;;7.53;;
32038;SDS011;18549;42.286;22.688;2023-06-05T04:43:37;15.07;;;7.45;;
32038;SDS011;18549;42.286;22.688;2023-06-05T04:46:05;13.35;;;7.32;;
32038;SDS011;18549;42.286;22.688;2023-06-05T04:48:32;14.85;;;7.68;;
32038;SDS011;18549;42.286;22.688;2023-06-05T04:51:03;11.85;;;7.62;;
32038;SDS011;18549;42.286;22.688;2023-06-05T04:53:30;12.93;;;8.18;;
32038;SDS011;18549;42.286;22.688;2023-06-05T04:55:58;19.50;;;8.50;;
32038;SDS011;18549;42.286;22.688;2023-06-05T04:58:27;11.85;;;6.32;;
32038;SDS011;18549;42.286;22.688;2023-06-05T05:00:54;11.77;;;6.93;;
32038;SDS011;18549;42.286;22.688;2023-06-05T05:03:30;21.33;;;7.15;;
32038;SDS011;18549;42.286;22.688;2023-06-05T05:05:57;18.05;;;7.60;;
32038;SDS011;18549;42.286;22.688;2023-06-05T05:08:29;9.85;;;7.75;;
32038;SDS011;18549;42.286;22.688;2023-06-05T05:10:57;9.00;;;6.70;;
32038;SDS011;18549;42.286;22.688;2023-06-05T05:13:26;9.77;;;6.87;;
32038;SDS011;18549;42.286;22.688;2023-06-05T05:15:53;15.30;;;8.82;;
32038;SDS011;18549;42.286;22.688;2023-06-05T05:18:20;16.12;;;8.48;;
32038;SDS011;18549;42.286;22.688;2023-06-05T05:20:48;9.68;;;7.55;;
32038;SDS011;18549;42.286;22.688;2023-06-05T05:23:15;14.68;;;8.30;;
32038;SDS011;18549;42.286;22.688;2023-06-05T05:25:44;8.57;;;7.35;;
32038;SDS011;18549;42.286;22.688;2023-06-05T05:28:12;13.82;;;8.15;;
32038;SDS011;18549;42.286;22.688;2023-06-05T05:30:39;12.60;;;7.68;;
32038;SDS011;18549;42.286;22.688;2023-06-05T05:33:07;12.05;;;8.52;;
32038;SDS011;18549;42.286;22.688;2023-06-05T05:35:34;14.52;;;8.85;;
32038;SDS011;18549;42.286;22.688;2023-06-05T05:38:01;10.18;;;7.93;;
32038;SDS011;18549;42.286;22.688;2023-06-05T05:40:29;13.60;;;8.25;;
32038;SDS011;18549;42.286;22.688;2023-06-05T05:42:58;15.25;;;7.00;;
32038;SDS011;18549;42.286;22.688;2023-06-05T05:45:26;11.70;;;8.10;;
32038;SDS011;18549;42.286;22.688;2023-06-05T05:47:53;14.48;;;8.02;;
32038;SDS011;18549;42.286;22.688;2023-06-05T05:50:21;12.18;;;7.70;;
32038;SDS011;18549;42.286;22.688;2023-06-05T05:52:48;8.45;;;6.87;;
32038;SDS011;18549;42.286;22.688;2023-06-05T05:55:18;9.05;;;7.03;;
32038;SDS011;18549;42.286;22.688;2023-06-05T05:57:45;13.07;;;6.80;;
32038;SDS011;18549;42.286;22.688;2023-06-05T06:00:15;10.57;;;7.55;;
32038;SDS011;18549;42.286;22.688;2023-06-05T06:02:43;8.55;;;7.00;;
32038;SDS011;18549;42.286;22.688;2023-06-05T06:05:10;14.60;;;7.65;;
32038;SDS011;18549;42.286;22.688;2023-06-05T06:07:38;10.80;;;7.60;;
32038;SDS011;18549;42.286;22.688;2023-06-05T06:10:07;7.97;;;6.95;;
32038;SDS011;18549;42.286;22.688;2023-06-05T06:12:37;8.63;;;6.80;;
32038;SDS011;18549;42.286;22.688;2023-06-05T06:15:05;8.73;;;6.82;;
32038;SDS011;18549;42.286;22.688;2023-06-05T06:17:34;8.55;;;7.45;;
32038;SDS011;18549;42.286;22.688;2023-06-05T06:20:03;9.27;;;7.65;;
32038;SDS011;18549;42.286;22.688;2023-06-05T06:22:31;11.27;;;8.60;;
32038;SDS011;18549;42.286;22.688;2023-06-05T06:24:58;9.02;;;8.13;;
32038;SDS011;18549;42.286;22.688;2023-06-05T06:27:25;12.88;;;9.50;;
32038;SDS011;18549;42.286;22.688;2023-06-05T06:29:54;9.23;;;8.27;;
32038;SDS011;18549;42.286;22.688;2023-06-05T06:32:22;12.75;;;9.52;;
32038;SDS011;18549;42.286;22.688;2023-06-05T06:34:52;11.35;;;10.15;;
32038;SDS011;18549;42.286;22.688;2023-06-05T06:37:20;12.25;;;9.88;;
32038;SDS011;18549;42.286;22.688;2023-06-05T06:39:48;25.37;;;10.48;;
32038;SDS011;18549;42.286;22.688;2023-06-05T06:42:15;16.13;;;10.80;;
32038;SDS011;18549;42.286;22.688;2023-06-05T06:44:42;11.93;;;10.25;;
32038;SDS011;18549;42.286;22.688;2023-06-05T06:47:10;12.10;;;10.15;;
32038;SDS011;18549;42.286;22.688;2023-06-05T06:49:37;12.25;;;9.70;;
32038;SDS011;18549;42.286;22.688;2023-06-05T06:52:06;18.67;;;10.25;;
32038;SDS011;18549;42.286;22.688;2023-06-05T06:54:33;13.52;;;9.68;;
32038;SDS011;18549;42.286;22.688;2023-06-05T06:57:03;10.43;;;9.30;;
32038;SDS011;18549;42.286;22.688;2023-06-05T06:59:31;14.85;;;9.93;;
32038;SDS011;18549;42.286;22.688;2023-06-05T07:02:09;18.02;;;9.70;;
32038;SDS011;18549;42.286;22.688;2023-06-05T07:04:38;9.25;;;8.35;;
32038;SDS011;18549;42.286;22.688;2023-06-05T07:07:10;14.70;;;10.17;;
32038;SDS011;18549;42.286;22.688;2023-06-05T07:09:40;12.50;;;10.45;;
32038;SDS011;18549;42.286;22.688;2023-06-05T07:12:07;16.33;;;12.02;;
32038;SDS011;18549;42.286;22.688;2023-06-05T07:14:36;14.82;;;12.43;;
32038;SDS011;18549;42.286;22.688;2023-06-05T07:17:04;16.95;;;12.80;;
32038;SDS011;18549;42.286;22.688;2023-06-05T07:19:33;13.10;;;11.73;;
32038;SDS011;18549;42.286;22.688;2023-06-05T07:22:02;14.07;;;12.48;;
32038;SDS011;18549;42.286;22.688;2023-06-05T07:24:32;13.32;;;10.63;;
32038;SDS011;18549;42.286;22.688;2023-06-05T07:27:02;14.85;;;11.73;;
32038;SDS011;18549;42.286;22.688;2023-06-05T07:29:30;15.38;;;11.68;;
32038;SDS011;18549;42.286;22.688;2023-06-05T07:31:58;19.62;;;11.52;;
32038;SDS011;18549;42.286;22.688;2023-06-05T07:34:28;17.73;;;11.32;;
32038;SDS011;18549;42.286;22.688;2023-06-05T07:36:55;14.18;;;11.60;;
32038;SDS011;18549;42.286;22.688;2023-06-05T07:39:25;11.35;;;9.95;;
32038;SDS011;18549;42.286;22.688;2023-06-05T07:42:02;14.23;;;11.02;;
32038;SDS011;18549;42.286;22.688;2023-06-05T07:44:30;13.13;;;11.15;;
32038;SDS011;18549;42.286;22.688;2023-06-05T07:46:58;13.62;;;10.65;;
32038;SDS011;18549;42.286;22.688;2023-06-05T07:49:29;19.35;;;12.57;;
32038;SDS011;18549;42.286;22.688;2023-06-05T07:51:58;16.45;;;12.60;;
32038;SDS011;18549;42.286;22.688;2023-06-05T07:54:26;18.40;;;11.70;;
32038;SDS011;18549;42.286;22.688;2023-06-05T07:56:56;20.73;;;11.20;;
32038;SDS011;18549;42.286;22.688;2023-06-05T07:59:24;12.20;;;9.85;;
32038;SDS011;18549;42.286;22.688;2023-06-05T08:01:53;12.50;;;11.18;;
32038;SDS011;18549;42.286;22.688;2023-06-05T08:04:21;15.75;;;10.88;;
32038;SDS011;18549;42.286;22.688;2023-06-05T08:06:50;11.98;;;10.63;;
32038;SDS011;18549;42.286;22.688;2023-06-05T08:09:18;21.55;;;10.40;;
32038;SDS011;18549;42.286;22.688;2023-06-05T08:11:46;16.95;;;11.30;;
32038;SDS011;18549;42.286;22.688;2023-06-05T08:14:15;14.10;;;11.35;;
32038;SDS011;18549;42.286;22.688;2023-06-05T08:16:43;19.42;;;13.35;;
32038;SDS011;18549;42.286;22.688;2023-06-05T08:19:11;18.45;;;10.80;;
32038;SDS011;18549;42.286;22.688;2023-06-05T08:21:38;15.73;;;10.57;;
32038;SDS011;18549;42.286;22.688;2023-06-05T08:24:06;14.05;;;11.50;;
32038;SDS011;18549;42.286;22.688;2023-06-05T08:26:35;14.55;;;10.82;;
32038;SDS011;18549;42.286;22.688;2023-06-05T08:29:02;21.40;;;12.50;;
32038;SDS011;18549;42.286;22.688;2023-06-05T08:31:31;12.98;;;11.65;;
32038;SDS011;18549;42.286;22.688;2023-06-05T08:34:01;15.55;;;12.63;;
32038;SDS011;18549;42.286;22.688;2023-06-05T08:36:29;14.13;;;12.63;;
32038;SDS011;18549;42.286;22.688;2023-06-05T08:38:58;13.07;;;11.07;;
32038;SDS011;18549;42.286;22.688;2023-06-05T08:41:29;12.50;;;11.20;;
32038;SDS011;18549;42.286;22.688;2023-06-05T08:44:03;18.40;;;11.18;;
32038;SDS011;18549;42.286;22.688;2023-06-05T08:46:32;14.82;;;11.82;;
32038;SDS011;18549;42.286;22.688;2023-06-05T08:49:07;13.13;;;11.63;;
32038;SDS011;18549;42.286;22.688;2023-06-05T08:51:37;14.35;;;12.48;;
32038;SDS011;18549;42.286;22.688;2023-06-05T08:54:06;11.95;;;10.65;;
32038;SDS011;18549;42.286;22.688;2023-06-05T08:56:38;13.60;;;11.15;;
32038;SDS011;18549;42.286;22.688;2023-06-05T08:59:06;11.65;;;10.43;;
32038;SDS011;18549;42.286;22.688;2023-06-05T09:01:35;19.90;;;11.52;;
32038;SDS011;18549;42.286;22.688;2023-06-05T09:04:04;13.02;;;11.35;;
32038;SDS011;18549;42.286;22.688;2023-06-05T09:06:34;13.65;;;10.80;;
32038;SDS011;18549;42.286;22.688;2023-06-05T09:09:02;11.55;;;10.20;;
32038;SDS011;18549;42.286;22.688;2023-06-05T09:11:33;22.65;;;12.07;;
32038;SDS011;18549;42.286;22.688;2023-06-05T09:14:01;13.52;;;11.15;;
32038;SDS011;18549;42.286;22.688;2023-06-05T09:16:33;18.55;;;11.07;;
32038;SDS011;18549;42.286;22.688;2023-06-05T09:19:03;12.95;;;10.57;;
32038;SDS011;18549;42.286;22.688;2023-06-05T09:21:31;13.82;;;12.00;;
32038;SDS011;18549;42.286;22.688;2023-06-05T09:24:14;17.55;;;11.12;;
32038;SDS011;18549;42.286;22.688;2023-06-05T09:26:45;15.30;;;11.15;;
32038;SDS011;18549;42.286;22.688;2023-06-05T09:29:23;16.27;;;11.77;;
32038;SDS011;18549;42.286;22.688;2023-06-05T09:31:54;16.92;;;11.27;;
32038;SDS011;18549;42.286;22.688;2023-06-05T09:34:23;17.27;;;12.48;;
32038;SDS011;18549;42.286;22.688;2023-06-05T09:36:52;15.48;;;12.98;;
32038;SDS011;18549;42.286;22.688;2023-06-05T09:39:20;14.95;;;12.10;;
32038;SDS011;18549;42.286;22.688;2023-06-05T09:41:50;15.88;;;11.98;;
32038;SDS011;18549;42.286;22.688;2023-06-05T09:44:17;16.98;;;13.45;;
32038;SDS011;18549;42.286;22.688;2023-06-05T09:46:57;12.10;;;10.93;;
32038;SDS011;18549;42.286;22.688;2023-06-05T09:49:26;20.55;;;13.15;;
32038;SDS011;18549;42.286;22.688;2023-06-05T09:51:55;14.20;;;12.70;;
32038;SDS011;18549;42.286;22.688;2023-06-05T09:54:25;18.98;;;12.95;;
32038;SDS011;18549;42.286;22.688;2023-06-05T09:56:56;12.93;;;11.57;;
32038;SDS011;18549;42.286;22.688;2023-06-05T09:59:26;14.30;;;11.57;;
32038;SDS011;18549;42.286;22.688;2023-06-05T10:01:59;12.40;;;11.20;;
32038;SDS011;18549;42.286;22.688;2023-06-05T10:04:29;13.32;;;12.00;;
32038;SDS011;18549;42.286;22.688;2023-06-05T10:07:04;15.05;;;12.88;;
32038;SDS011;18549;42.286;22.688;2023-06-05T10:09:31;15.15;;;11.85;;
32038;SDS011;18549;42.286;22.688;2023-06-05T10:11:59;21.77;;;15.20;;
32038;SDS011;18549;42.286;22.688;2023-06-05T10:14:27;15.82;;;13.18;;
32038;SDS011;18549;42.286;22.688;2023-06-05T10:16:55;17.30;;;12.75;;
32038;SDS011;18549;42.286;22.688;2023-06-05T10:19:26;16.15;;;12.75;;
32038;SDS011;18549;42.286;22.688;2023-06-05T10:21:54;14.40;;;12.70;;
32038;SDS011;18549;42.286;22.688;2023-06-05T10:24:23;13.73;;;12.37;;
32038;SDS011;18549;42.286;22.688;2023-06-05T10:27:08;16.70;;;12.68;;
32038;SDS011;18549;42.286;22.688;2023-06-05T10:29:50;15.98;;;13.27;;
32038;SDS011;18549;42.286;22.688;2023-06-05T10:32:44;17.08;;;14.00;;
32038;SDS011;18549;42.286;22.688;2023-06-05T10:35:33;15.23;;;13.73;;
32038;SDS011;18549;42.286;22.688;2023-06-05T10:38:14;20.77;;;13.70;;
32038;SDS011;18549;42.286;22.688;2023-06-05T10:40:44;20.40;;;13.30;;
32038;SDS011;18549;42.286;22.688;2023-06-05T10:43:27;15.40;;;13.90;;
32038;SDS011;18549;42.286;22.688;2023-06-05T10:45:56;18.52;;;14.38;;
32038;SDS011;18549;42.286;22.688;2023-06-05T10:51:33;14.80;;;12.07;;
32038;SDS011;18549;42.286;22.688;2023-06-05T10:54:05;21.17;;;12.47;;
32038;SDS011;18549;42.286;22.688;2023-06-05T10:59:23;13.80;;;12.40;;
32038;SDS011;18549;42.286;22.688;2023-06-05T11:05:05;13.48;;;11.80;;
32038;SDS011;18549;42.286;22.688;2023-06-05T11:07:40;14.35;;;11.70;;
32038;SDS011;18549;42.286;22.688;2023-06-05T11:10:13;17.52;;;11.43;;
32038;SDS011;18549;42.286;22.688;2023-06-05T11:12:55;12.30;;;11.10;;
32038;SDS011;18549;42.286;22.688;2023-06-05T11:15:39;15.40;;;10.88;;
32038;SDS011;18549;42.286;22.688;2023-06-05T11:20:55;13.32;;;11.80;;
32038;SDS011;18549;42.286;22.688;2023-06-05T11:23:24;15.05;;;11.60;;
32038;SDS011;18549;42.286;22.688;2023-06-05T11:25:53;15.38;;;11.60;;
32038;SDS011;18549;42.286;22.688;2023-06-05T11:28:37;17.33;;;12.75;;
32038;SDS011;18549;42.286;22.688;2023-06-05T11:31:05;14.52;;;11.75;;
32038;SDS011;18549;42.286;22.688;2023-06-05T11:33:33;12.45;;;11.25;;
32038;SDS011;18549;42.286;22.688;2023-06-05T11:36:01;12.88;;;11.50;;
32038;SDS011;18549;42.286;22.688;2023-06-05T11:38:33;11.98;;;10.85;;
32038;SDS011;18549;42.286;22.688;2023-06-05T11:41:05;12.30;;;11.10;;
32038;SDS011;18549;42.286;22.688;2023-06-05T11:43:41;12.18;;;10.98;;
32038;SDS011;18549;42.286;22.688;2023-06-05T11:46:09;12.50;;;10.75;;
32038;SDS011;18549;42.286;22.688;2023-06-05T11:48:42;14.57;;;11.57;;
32038;SDS011;18549;42.286;22.688;2023-06-05T11:51:10;14.90;;;11.02;;
32038;SDS011;18549;42.286;22.688;2023-06-05T11:53:44;11.65;;;10.55;;
32038;SDS011;18549;42.286;22.688;2023-06-05T11:56:14;13.32;;;12.02;;
32038;SDS011;18549;42.286;22.688;2023-06-05T11:58:43;14.20;;;12.80;;
32038;SDS011;18549;42.286;22.688;2023-06-05T12:01:14;13.95;;;11.68;;
32038;SDS011;18549;42.286;22.688;2023-06-05T12:03:47;15.35;;;12.10;;
32038;SDS011;18549;42.286;22.688;2023-06-05T12:06:16;19.48;;;12.75;;
32038;SDS011;18549;42.286;22.688;2023-06-05T12:08:45;15.23;;;12.63;;
32038;SDS011;18549;42.286;22.688;2023-06-05T12:11:20;15.18;;;12.18;;
32038;SDS011;18549;42.286;22.688;2023-06-05T12:13:49;21.92;;;13.75;;
32038;SDS011;18549;42.286;22.688;2023-06-05T12:16:18;17.77;;;13.25;;
32038;SDS011;18549;42.286;22.688;2023-06-05T12:18:47;15.45;;;13.07;;
32038;SDS011;18549;42.286;22.688;2023-06-05T12:21:21;16.43;;;13.93;;
32038;SDS011;18549;42.286;22.688;2023-06-05T12:23:51;16.60;;;14.75;;
32038;SDS011;18549;42.286;22.688;2023-06-05T12:26:27;14.77;;;13.40;;
32038;SDS011;18549;42.286;22.688;2023-06-05T12:29:01;14.60;;;13.18;;
32038;SDS011;18549;42.286;22.688;2023-06-05T12:31:33;20.35;;;15.50;;
32038;SDS011;18549;42.286;22.688;2023-06-05T12:34:04;18.42;;;14.38;;
32038;SDS011;18549;42.286;22.688;2023-06-05T12:36:37;14.10;;;12.73;;
32038;SDS011;18549;42.286;22.688;2023-06-05T12:39:09;23.15;;;13.10;;
32038;SDS011;18549;42.286;22.688;2023-06-05T12:41:38;15.82;;;12.65;;
32038;SDS011;18549;42.286;22.688;2023-06-05T12:44:06;12.27;;;11.18;;
32038;SDS011;18549;42.286;22.688;2023-06-05T12:46:34;12.48;;;11.27;;
32038;SDS011;18549;42.286;22.688;2023-06-05T12:49:03;13.25;;;11.95;;
32038;SDS011;18549;42.286;22.688;2023-06-05T12:51:30;21.50;;;14.80;;
32038;SDS011;18549;42.286;22.688;2023-06-05T12:53:58;25.12;;;14.85;;
32038;SDS011;18549;42.286;22.688;2023-06-05T12:56:27;15.23;;;11.32;;
32038;SDS011;18549;42.286;22.688;2023-06-05T12:58:54;14.27;;;11.55;;
32038;SDS011;18549;42.286;22.688;2023-06-05T13:01:23;14.00;;;11.25;;
32038;SDS011;18549;42.286;22.688;2023-06-05T13:03:52;12.23;;;10.93;;
32038;SDS011;18549;42.286;22.688;2023-06-05T13:06:19;17.20;;;12.57;;
32038;SDS011;18549;42.286;22.688;2023-06-05T13:08:47;13.00;;;11.60;;
32038;SDS011;18549;42.286;22.688;2023-06-05T13:11:14;16.45;;;11.70;;
32038;SDS011;18549;42.286;22.688;2023-06-05T13:13:43;15.00;;;11.05;;
32038;SDS011;18549;42.286;22.688;2023-06-05T13:16:10;12.37;;;11.18;;
32038;SDS011;18549;42.286;22.688;2023-06-05T13:18:37;14.27;;;10.88;;
32038;SDS011;18549;42.286;22.688;2023-06-05T13:21:05;14.82;;;11.57;;
32038;SDS011;18549;42.286;22.688;2023-06-05T13:23:32;15.25;;;11.23;;
32038;SDS011;18549;42.286;22.688;2023-06-05T13:26:00;13.20;;;11.82;;
32038;SDS011;18549;42.286;22.688;2023-06-05T13:28:28;13.25;;;11.95;;
32038;SDS011;18549;42.286;22.688;2023-06-05T13:30:57;12.73;;;10.63;;
32038;SDS011;18549;42.286;22.688;2023-06-05T13:33:24;12.25;;;11.05;;
32038;SDS011;18549;42.286;22.688;2023-06-05T13:35:51;13.82;;;11.20;;
32038;SDS011;18549;42.286;22.688;2023-06-05T13:38:19;14.13;;;11.60;;
32038;SDS011;18549;42.286;22.688;2023-06-05T13:40:48;11.98;;;10.77;;
32038;SDS011;18549;42.286;22.688;2023-06-05T13:43:17;13.70;;;10.90;;
32038;SDS011;18549;42.286;22.688;2023-06-05T13:45:45;14.55;;;10.55;;
32038;SDS011;18549;42.286;22.688;2023-06-05T13:48:14;11.93;;;10.77;;
32038;SDS011;18549;42.286;22.688;2023-06-05T13:50:41;11.57;;;10.40;;
32038;SDS011;18549;42.286;22.688;2023-06-05T13:53:08;11.40;;;10.20;;
32038;SDS011;18549;42.286;22.688;2023-06-05T13:55:35;10.38;;;9.27;;
32038;SDS011;18549;42.286;22.688;2023-06-05T13:58:05;10.88;;;9.98;;
32038;SDS011;18549;42.286;22.688;2023-06-05T14:00:32;12.82;;;9.70;;
32038;SDS011;18549;42.286;22.688;2023-06-05T14:03:00;11.55;;;9.48;;
32038;SDS011;18549;42.286;22.688;2023-06-05T14:05:28;16.62;;;12.45;;
32038;SDS011;18549;42.286;22.688;2023-06-05T14:07:56;10.70;;;9.38;;
32038;SDS011;18549;42.286;22.688;2023-06-05T14:10:24;18.73;;;11.10;;
32038;SDS011;18549;42.286;22.688;2023-06-05T14:12:51;14.98;;;11.98;;
32038;SDS011;18549;42.286;22.688;2023-06-05T14:15:20;20.40;;;11.35;;
32038;SDS011;18549;42.286;22.688;2023-06-05T14:17:48;28.23;;;11.43;;
32038;SDS011;18549;42.286;22.688;2023-06-05T14:20:17;12.10;;;10.75;;
32038;SDS011;18549;42.286;22.688;2023-06-05T14:22:47;12.10;;;10.52;;
32038;SDS011;18549;42.286;22.688;2023-06-05T14:25:14;12.35;;;10.48;;
32038;SDS011;18549;42.286;22.688;2023-06-05T14:27:41;12.27;;;10.70;;
32038;SDS011;18549;42.286;22.688;2023-06-05T14:30:09;15.97;;;10.80;;
32038;SDS011;18549;42.286;22.688;2023-06-05T14:32:37;15.30;;;10.38;;
32038;SDS011;18549;42.286;22.688;2023-06-05T14:35:05;14.73;;;10.82;;
32038;SDS011;18549;42.286;22.688;2023-06-05T14:37:32;10.57;;;9.50;;
32038;SDS011;18549;42.286;22.688;2023-06-05T14:40:01;14.43;;;10.60;;